Time;durP1;ratioP1;P1;durP2;ratioP2;P2;SDS_P1;SDS_P2;PMS_P1;PMS_P2;Temp;Humidity;BMP_temperature;BMP_pressure;BME280_temperature;BME280_humidity;BME280_pressure;Samples;Min_cycle;Max_cycle;Signal;HPM_P1;HPM_P2
2022/08/17 00:00:41;;;;;;;;;;;;;;;;;;4891766;29;20197;-67
2022/08/17 00:03:17;;;;;;;;;;;;;;;;;;4888994;29;20411;-69
2022/08/17 00:05:45;;;;;;;;;;;;;;;;;;4897999;29;20327;-68
2022/08/17 00:08:13;;;;;;;;;;;;;;;;;;4906421;29;20018;-68
2022/08/17 00:10:40;;;;;;;;;;;;;;;;;;4892463;29;20390;-68
2022/08/17 00:13:08;;;;;;;;;;;;;;;;;;4891874;29;19931;-68
2022/08/17 00:15:35;;;;;;;;;;;;;;;;;;4891775;29;19988;-68
2022/08/17 00:18:03;;;;;;;;;;;;;;;;;;4890926;29;19931;-68
2022/08/17 00:20:30;;;;;;;;;;;;;;;;;;4886572;29;19931;-68
2022/08/17 00:23:01;;;;;;;;;;;;;;;;;;4891387;29;20205;-67
2022/08/17 00:25:28;;;;;;;;;;;;;;;;;;4891368;29;19943;-69
2022/08/17 00:27:55;;;;;;;;;;;;;;;;;;4890586;29;20332;-68
2022/08/17 00:30:22;;;;;;;;;;;;;;;;;;4890113;29;19927;-68
2022/08/17 00:32:50;;;;;;;;;;;;;;;;;;4890971;29;19991;-68
2022/08/17 00:35:37;;;;;;;;;;;;;;;;;;4896073;29;20332;-68
2022/08/17 00:38:08;;;;;;;;;;;;;;;;;;4888200;29;19931;-68
2022/08/17 00:40:35;;;;;;;;;;;;;;;;;;4889368;29;19962;-68
2022/08/17 00:43:06;;;;;;;;;;;;;;;;;;4890127;29;20312;-67
2022/08/17 00:45:34;;;;;;;;;;;;;;;;;;4891015;29;20144;-68
2022/08/17 00:48:01;;;;;;;;;;;;;;;;;;4890470;29;20018;-68
2022/08/17 00:50:28;;;;;;;;;;;;;;;;;;4897920;29;20446;-68
2022/08/17 00:52:55;;;;;;;;;;;;;;;;;;4896111;29;19927;-67
2022/08/17 00:55:23;;;;;;;;;;;;;;;;;;4901059;29;19942;-68
2022/08/17 00:57:50;;;;;;;;;;;;;;;;;;4890034;29;19959;-68
2022/08/17 01:00:25;;;;;;;;;;;;;;;;;;4897210;29;19946;-68
2022/08/17 01:02:52;;;;;;;;;;;;;;;;;;4906200;29;19931;-68
2022/08/17 01:05:20;;;;;;;;;;;;;;;;;;4903379;29;19931;-68
2022/08/17 01:07:47;;;;;;;;;;;;;;;;;;4901288;29;20298;-68
2022/08/17 01:10:15;;;;;;;;;;;;;;;;;;4904547;29;20308;-67
2022/08/17 01:13:02;;;;;;;;;;;;;;;;;;4900714;29;20322;-67
2022/08/17 01:15:29;;;;;;;;;;;;;;;;;;4902636;29;20404;-68
2022/08/17 01:17:58;;;;;;;;;;;;;;;;;;4888226;29;22665;-67
2022/08/17 01:20:26;;;;;;;;;;;;;;;;;;4904032;29;19942;-67
2022/08/17 01:22:53;;;;;;;;;;;;;;;;;;4888951;29;20387;-67
2022/08/17 01:25:20;;;;;;;;;;;;;;;;;;4889925;29;19951;-67
2022/08/17 01:27:48;;;;;;;;;;;;;;;;;;4896219;29;19930;-67
2022/08/17 01:30:15;;;;;;;;;;;;;;;;;;4900965;29;19931;-68
2022/08/17 01:33:03;;;;;;;;;;;;;;;;;;4889462;29;19931;-68
2022/08/17 01:35:30;;;;;;;;;;;;;;;;;;4884894;29;19990;-67
2022/08/17 01:37:57;;;;;;;;;;;;;;;;;;4886553;29;19986;-68
2022/08/17 01:40:25;;;;;;;;;;;;;;;;;;4890606;29;19931;-68
2022/08/17 01:42:52;;;;;;;;;;;;;;;;;;4890071;29;20026;-67
2022/08/17 01:45:21;;;;;;;;;;;;;;;;;;4890420;29;20251;-68
2022/08/17 01:47:49;;;;;;;;;;;;;;;;;;4889665;29;19982;-67
2022/08/17 01:50:16;;;;;;;;;;;;;;;;;;4889589;29;19934;-67
2022/08/17 01:52:43;;;;;;;;;;;;;;;;;;4880227;29;20014;-67
2022/08/17 01:55:10;;;;;;;;;;;;;;;;;;4883901;29;20138;-67
2022/08/17 01:57:37;;;;;;;;;;;;;;;;;;4889375;29;19932;-67
2022/08/17 02:00:05;;;;;;;;;;;;;;;;;;4888296;29;19931;-67
2022/08/17 02:02:37;;;;;;;;;;;;;;;;;;4890199;29;19927;-67
2022/08/17 02:05:04;;;;;;;;;;;;;;;;;;4893617;29;19927;-67
2022/08/17 02:07:31;;;;;;;;;;;;;;;;;;4889315;29;19932;-68
2022/08/17 02:09:58;;;;;;;;;;;;;;;;;;4889158;29;19963;-67
2022/08/17 02:12:26;;;;;;;;;;;;;;;;;;4889589;29;20319;-67
2022/08/17 02:15:04;;;;;;;;;;;;;;;;;;4889646;29;19931;-67
2022/08/17 02:17:32;;;;;;;;;;;;;;;;;;4889515;29;19931;-67
2022/08/17 02:19:59;;;;;;;;;;;;;;;;;;4889140;29;19938;-68
2022/08/17 02:22:26;;;;;;;;;;;;;;;;;;4890160;29;20316;-67
2022/08/17 02:24:53;;;;;;;;;;;;;;;;;;4887396;29;20014;-67
2022/08/17 02:27:27;;;;;;;;;;;;;;;;;;4889243;29;19971;-68
2022/08/17 02:29:54;;;;;;;;;;;;;;;;;;4889357;29;20384;-68
2022/08/17 02:32:21;;;;;;;;;;;;;;;;;;4889800;29;20360;-67
2022/08/17 02:34:53;;;;;;;;;;;;;;;;;;4894736;29;19931;-68
2022/08/17 02:37:21;;;;;;;;;;;;;;;;;;4887037;29;19931;-68
2022/08/17 02:39:48;;;;;;;;;;;;;;;;;;4888776;29;20010;-68
2022/08/17 02:42:15;;;;;;;;;;;;;;;;;;4889119;29;19938;-67
2022/08/17 02:44:43;;;;;;;;;;;;;;;;;;4904013;29;19932;-67
2022/08/17 02:47:11;;;;;;;;;;;;;;;;;;4888600;29;19931;-67
2022/08/17 02:49:38;;;;;;;;;;;;;;;;;;4889601;29;20453;-67
2022/08/17 02:52:05;;;;;;;;;;;;;;;;;;4891958;29;20435;-67
2022/08/17 02:54:33;;;;;;;;;;;;;;;;;;4898385;29;19927;-67
2022/08/17 02:57:07;;;;;;;;;;;;;;;;;;4905256;29;19953;-67
2022/08/17 02:59:35;;;;;;;;;;;;;;;;;;4892317;29;19938;-67
2022/08/17 03:02:02;;;;;;;;;;;;;;;;;;4893369;29;19966;-67
2022/08/17 03:04:30;;;;;;;;;;;;;;;;;;4894419;29;20299;-67
2022/08/17 03:06:57;;;;;;;;;;;;;;;;;;4894378;29;19932;-67
2022/08/17 03:09:24;;;;;;;;;;;;;;;;;;4889367;29;19931;-68
2022/08/17 03:11:52;;;;;;;;;;;;;;;;;;4887079;29;20031;-67
2022/08/17 03:14:19;;;;;;;;;;;;;;;;;;4884908;29;20154;-67
2022/08/17 03:16:46;;;;;;;;;;;;;;;;;;4889601;29;19935;-68
2022/08/17 03:19:14;;;;;;;;;;;;;;;;;;4892519;29;19977;-67
2022/08/17 03:21:41;;;;;;;;;;;;;;;;;;4892376;29;20026;-67
2022/08/17 03:24:08;;;;;;;;;;;;;;;;;;4891101;29;19950;-68
2022/08/17 03:26:36;;;;;;;;;;;;;;;;;;4894348;29;20059;-67
2022/08/17 03:29:03;;;;;;;;;;;;;;;;;;4905274;29;19931;-68
2022/08/17 03:31:31;;;;;;;;;;;;;;;;;;4891178;29;20096;-69
2022/08/17 03:33:59;;;;;;;;;;;;;;;;;;4898264;29;20391;-69
2022/08/17 03:36:27;;;;;;;;;;;;;;;;;;4898192;29;20655;-68
2022/08/17 03:38:54;;;;;;;;;;;;;;;;;;4892417;29;19927;-68
2022/08/17 03:41:21;;;;;;;;;;;;;;;;;;4910557;23;20854;-71
2022/08/17 03:43:48;;;;;;;;;;;;;;;;;;4886906;29;19932;-71
2022/08/17 03:57:20;;;;;;;;;;;;;;;;;;4872248;29;19939;-72
2022/08/17 03:59:47;;;;;;;;;;;;;;;;;;4886469;29;19928;-71
2022/08/17 04:02:15;;;;;;;;;;;;;;;;;;4882562;29;20302;-72
2022/08/17 04:04:42;;;;;;;;;;;;;;;;;;4871263;29;20308;-72
2022/08/17 04:07:09;;;;;;;;;;;;;;;;;;4865376;29;19940;-72
2022/08/17 04:09:36;;;;;;;;;;;;;;;;;;4865210;29;19936;-72
2022/08/17 04:12:04;;;;;;;;;;;;;;;;;;4871515;29;19932;-72
2022/08/17 04:14:35;;;;;;;;;;;;;;;;;;4872375;29;19936;-72
2022/08/17 04:17:02;;;;;;;;;;;;;;;;;;4872849;29;19932;-72
2022/08/17 04:19:30;;;;;;;;;;;;;;;;;;4873481;29;19931;-72
2022/08/17 04:21:57;;;;;;;;;;;;;;;;;;4869711;29;19932;-72
2022/08/17 04:24:24;;;;;;;;;;;;;;;;;;4872843;29;19939;-73
2022/08/17 04:26:51;;;;;;;;;;;;;;;;;;4873165;29;20000;-72
2022/08/17 04:29:20;;;;;;;;;;;;;;;;;;4872930;29;20312;-72
2022/08/17 04:31:48;;;;;;;;;;;;;;;;;;4872145;29;20242;-73
2022/08/17 04:34:15;;;;;;;;;;;;;;;;;;4872986;29;19932;-72
2022/08/17 04:36:45;;;;;;;;;;;;;;;;;;4866692;29;19967;-71
2022/08/17 04:39:16;;;;;;;;;;;;;;;;;;4873055;29;19927;-72
2022/08/17 04:44:29;;;;;;;;;;;;;;;;;;4885076;29;19983;-73
2022/08/17 04:47:04;;;;;;;;;;;;;;;;;;4872290;29;19935;-72
2022/08/17 04:49:31;;;;;;;;;;;;;;;;;;4873310;29;19928;-72
2022/08/17 04:51:59;;;;;;;;;;;;;;;;;;4864252;29;19932;-71
2022/08/17 04:54:30;;;;;;;;;;;;;;;;;;4868299;29;19971;-73
2022/08/17 04:56:57;;;;;;;;;;;;;;;;;;4860362;29;19932;-71
2022/08/17 04:59:25;;;;;;;;;;;;;;;;;;4867741;29;20347;-70
2022/08/17 05:01:52;;;;;;;;;;;;;;;;;;4867273;29;20198;-69
2022/08/17 05:04:19;;;;;;;;;;;;;;;;;;4869429;29;19932;-71
2022/08/17 05:06:59;;;;;;;;;;;;;;;;;;4865551;29;20396;-72
2022/08/17 05:09:27;;;;;;;;;;;;;;;;;;4868668;29;19936;-70
2022/08/17 05:11:55;;;;;;;;;;;;;;;;;;4868932;29;19932;-70
2022/08/17 05:14:22;;;;;;;;;;;;;;;;;;4869279;29;19927;-70
2022/08/17 05:16:59;;;;;;;;;;;;;;;;;;4883823;29;19931;-70
2022/08/17 05:19:26;;;;;;;;;;;;;;;;;;4866622;29;19944;-71
2022/08/17 05:21:54;;;;;;;;;;;;;;;;;;4869857;29;20445;-71
2022/08/17 05:24:21;;;;;;;;;;;;;;;;;;4870408;29;20327;-70
2022/08/17 05:27:08;;;;;;;;;;;;;;;;;;4870805;29;20248;-71
2022/08/17 05:29:35;;;;;;;;;;;;;;;;;;4869202;29;19939;-70
2022/08/17 05:32:03;;;;;;;;;;;;;;;;;;4869475;29;19928;-71
2022/08/17 05:34:30;;;;;;;;;;;;;;;;;;4869814;29;20584;-70
2022/08/17 05:36:57;;;;;;;;;;;;;;;;;;4867969;29;19979;-71
2022/08/17 05:39:25;;;;;;;;;;;;;;;;;;4866802;29;19939;-70
2022/08/17 05:41:52;;;;;;;;;;;;;;;;;;4864478;29;19939;-70
2022/08/17 05:44:19;;;;;;;;;;;;;;;;;;4865668;29;20342;-70
2022/08/17 05:46:47;;;;;;;;;;;;;;;;;;4866748;29;20373;-70
2022/08/17 05:49:14;;;;;;;;;;;;;;;;;;4868782;29;19932;-70
2022/08/17 05:51:41;;;;;;;;;;;;;;;;;;4858399;29;19932;-71
2022/08/17 05:54:09;;;;;;;;;;;;;;;;;;4865313;29;20400;-71
2022/08/17 05:56:36;;;;;;;;;;;;;;;;;;4866235;29;20444;-71
2022/08/17 05:59:03;;;;;;;;;;;;;;;;;;4866626;29;20338;-70
2022/08/17 06:01:30;;;;;;;;;;;;;;;;;;4878187;29;20424;-70
2022/08/17 06:03:58;;;;;;;;;;;;;;;;;;4863645;29;20210;-71
2022/08/17 06:06:25;;;;;;;;;;;;;;;;;;4859717;29;19931;-70
2022/08/17 06:08:57;;;;;;;;;;;;;;;;;;4864746;29;19936;-71
2022/08/17 06:11:25;;;;;;;;;;;;;;;;;;4884189;29;19936;-69
2022/08/17 06:13:52;;;;;;;;;;;;;;;;;;4866109;29;19967;-70
2022/08/17 06:16:19;;;;;;;;;;;;;;;;;;4882122;29;20023;-71
2022/08/17 06:18:52;;;;;;;;;;;;;;;;;;4865836;29;19997;-71
2022/08/17 06:21:19;;;;;;;;;;;;;;;;;;4869186;29;19932;-69
2022/08/17 06:23:46;;;;;;;;;;;;;;;;;;4865555;29;20180;-71
2022/08/17 06:26:13;;;;;;;;;;;;;;;;;;4869191;29;20315;-70
2022/08/17 06:28:41;;;;;;;;;;;;;;;;;;4870659;29;19975;-69
2022/08/17 06:31:09;;;;;;;;;;;;;;;;;;4868890;29;20030;-70
2022/08/17 06:33:36;;;;;;;;;;;;;;;;;;4869264;29;20297;-70
2022/08/17 06:36:03;;;;;;;;;;;;;;;;;;4865688;29;20387;-69
2022/08/17 06:38:35;;;;;;;;;;;;;;;;;;4862518;29;20009;-70
2022/08/17 06:41:04;;;;;;;;;;;;;;;;;;4873194;29;19939;-70
2022/08/17 06:43:31;;;;;;;;;;;;;;;;;;4867037;29;19986;-69
2022/08/17 06:45:59;;;;;;;;;;;;;;;;;;4868441;29;19939;-69
2022/08/17 06:48:26;;;;;;;;;;;;;;;;;;4867418;29;19982;-69
2022/08/17 06:50:53;;;;;;;;;;;;;;;;;;4864650;29;19963;-70
2022/08/17 06:53:20;;;;;;;;;;;;;;;;;;4862613;29;19936;-70
2022/08/17 06:55:48;;;;;;;;;;;;;;;;;;4859978;29;20301;-70
2022/08/17 06:58:15;;;;;;;;;;;;;;;;;;4859071;29;19935;-69
2022/08/17 07:00:43;;;;;;;;;;;;;;;;;;4861395;29;19939;-70
2022/08/17 07:03:10;;;;;;;;;;;;;;;;;;4859173;29;19936;-70
2022/08/17 07:05:37;;;;;;;;;;;;;;;;;;4873685;29;20026;-70
2022/08/17 07:08:05;;;;;;;;;;;;;;;;;;4863184;29;20074;-70
2022/08/17 07:10:32;;;;;;;;;;;;;;;;;;4867977;29;19927;-70
2022/08/17 07:13:00;;;;;;;;;;;;;;;;;;4869678;29;20189;-70
2022/08/17 07:15:28;;;;;;;;;;;;;;;;;;4871420;29;20793;-68
2022/08/17 07:17:58;;;;;;;;;;;;;;;;;;4885097;29;19963;-68
2022/08/17 07:20:25;;;;;;;;;;;;;;;;;;4887245;29;20026;-68
2022/08/17 07:22:53;;;;;;;;;;;;;;;;;;4888734;29;19999;-68
2022/08/17 07:25:27;;;;;;;;;;;;;;;;;;4883477;29;19932;-69
2022/08/17 07:27:54;;;;;;;;;;;;;;;;;;4878117;29;19932;-68
2022/08/17 07:30:22;;;;;;;;;;;;;;;;;;4877305;29;19935;-70
2022/08/17 07:32:49;;;;;;;;;;;;;;;;;;4876757;29;19935;-70
2022/08/17 07:35:16;;;;;;;;;;;;;;;;;;4876046;29;19938;-67
2022/08/17 07:37:44;;;;;;;;;;;;;;;;;;4876775;29;20066;-69
2022/08/17 07:40:11;;;;;;;;;;;;;;;;;;4876995;29;19931;-69
2022/08/17 07:42:42;;;;;;;;;;;;;;;;;;4874263;29;19934;-70
2022/08/17 07:48:17;;;;;;;;;;;;;;;;;;4873205;29;20246;-70
2022/08/17 07:48:18;;;;;;;;;;;;;;;;;;4871827;29;19932;-70
2022/08/17 07:50:45;;;;;;;;;;;;;;;;;;4873465;29;19938;-69
2022/08/17 07:53:15;;;;;;;;;;;;;;;;;;4873548;29;19942;-69
2022/08/17 07:55:44;;;;;;;;;;;;;;;;;;4883511;29;19928;-70
2022/08/17 07:58:11;;;;;;;;;;;;;;;;;;4872473;29;19938;-69
2022/08/17 08:00:39;;;;;;;;;;;;;;;;;;4885909;29;20017;-70
2022/08/17 08:03:06;;;;;;;;;;;;;;;;;;4871673;29;19975;-69
2022/08/17 08:05:33;;;;;;;;;;;;;;;;;;4871137;29;20289;-70
2022/08/17 08:08:16;;;;;;;;;;;;;;;;;;4872994;29;19932;-70
2022/08/17 08:10:43;;;;;;;;;;;;;;;;;;4873486;29;19938;-67
2022/08/17 08:13:12;;;;;;;;;;;;;;;;;;4874181;29;19931;-70
2022/08/17 08:15:41;;;;;;;;;;;;;;;;;;4885450;29;19943;-68
2022/08/17 08:18:11;;;;;;;;;;;;;;;;;;4872071;29;19932;-70
2022/08/17 08:20:39;;;;;;;;;;;;;;;;;;4877093;29;19987;-69
2022/08/17 08:23:19;;;;;;;;;;;;;;;;;;4880812;29;19980;-70
2022/08/17 08:25:47;;;;;;;;;;;;;;;;;;4855326;29;19932;-69
2022/08/17 08:28:19;;;;;;;;;;;;;;;;;;4872834;29;20010;-70
2022/08/17 08:30:47;;;;;;;;;;;;;;;;;;4872663;29;19938;-70
2022/08/17 08:33:16;;;;;;;;;;;;;;;;;;4870059;29;19931;-70
2022/08/17 08:35:43;;;;;;;;;;;;;;;;;;4869310;29;19936;-70
2022/08/17 08:38:10;;;;;;;;;;;;;;;;;;4868761;29;19939;-70
2022/08/17 08:40:37;;;;;;;;;;;;;;;;;;4866410;29;19932;-69
2022/08/17 08:43:05;;;;;;;;;;;;;;;;;;4872135;29;20337;-69
2022/08/17 08:45:32;;;;;;;;;;;;;;;;;;4870161;29;19950;-69
2022/08/17 08:47:59;;;;;;;;;;;;;;;;;;4865874;29;20455;-70
2022/08/17 08:50:31;;;;;;;;;;;;;;;;;;4872720;29;19943;-70
2022/08/17 08:53:04;;;;;;;;;;;;;;;;;;4871093;29;19927;-69
2022/08/17 08:55:34;;;;;;;;;;;;;;;;;;4864334;29;19946;-70
2022/08/17 08:58:02;;;;;;;;;;;;;;;;;;4876043;29;20401;-71
2022/08/17 09:00:29;;;;;;;;;;;;;;;;;;4869801;29;20364;-70
2022/08/17 09:02:57;;;;;;;;;;;;;;;;;;4850619;29;20329;-70
2022/08/17 09:05:24;;;;;;;;;;;;;;;;;;4875685;29;20035;-70
2022/08/17 09:07:52;;;;;;;;;;;;;;;;;;4870900;29;19936;-71
2022/08/17 09:10:24;;;;;;;;;;;;;;;;;;4869553;29;19984;-70
2022/08/17 09:12:51;;;;;;;;;;;;;;;;;;4870015;29;19968;-72
2022/08/17 09:15:21;;;;;;;;;;;;;;;;;;4886544;29;19935;-68
2022/08/17 09:17:49;;;;;;;;;;;;;;;;;;4844544;29;19932;-69
2022/08/17 09:20:30;;;;;;;;;;;;;;;;;;4873536;29;19931;-70
2022/08/17 09:22:58;;;;;;;;;;;;;;;;;;4856635;29;20349;-70
2022/08/17 09:25:27;;;;;;;;;;;;;;;;;;4887144;29;19954;-70
2022/08/17 09:27:58;;;;;;;;;;;;;;;;;;4866692;29;20361;-69
2022/08/17 09:30:29;;;;;;;;;;;;;;;;;;4887176;29;19950;-71
2022/08/17 09:32:57;;;;;;;;;;;;;;;;;;4872245;29;20435;-69
2022/08/17 09:35:25;;;;;;;;;;;;;;;;;;4846594;29;19932;-70
2022/08/17 09:38:03;;;;;;;;;;;;;;;;;;4884608;29;19932;-69
2022/08/17 09:40:34;;;;;;;;;;;;;;;;;;4887055;29;19939;-71
2022/08/17 09:43:03;;;;;;;;;;;;;;;;;;4881822;29;19935;-71
2022/08/17 09:45:30;;;;;;;;;;;;;;;;;;4869867;29;19931;-71
2022/08/17 09:48:03;;;;;;;;;;;;;;;;;;4869568;29;19962;-71
2022/08/17 09:50:35;;;;;;;;;;;;;;;;;;4859858;29;19936;-68
2022/08/17 09:53:26;;;;;;;;;;;;;;;;;;4883497;29;19929;-71
2022/08/17 09:55:57;;;;;;;;;;;;;;;;;;4852644;29;20393;-69
2022/08/17 09:58:25;;;;;;;;;;;;;;;;;;4868013;29;19972;-70
2022/08/17 10:00:55;;;;;;;;;;;;;;;;;;4854509;29;19964;-70
2022/08/17 10:03:24;;;;;;;;;;;;;;;;;;4853879;29;19972;-71
2022/08/17 10:05:51;;;;;;;;;;;;;;;;;;4854002;29;19940;-71
2022/08/17 10:08:22;;;;;;;;;;;;;;;;;;4854935;29;19940;-69
2022/08/17 10:10:51;;;;;;;;;;;;;;;;;;4858017;29;19928;-70
2022/08/17 10:13:23;;;;;;;;;;;;;;;;;;4861267;29;20030;-68
2022/08/17 10:15:50;;;;;;;;;;;;;;;;;;4867840;29;19971;-70
2022/08/17 10:18:17;;;;;;;;;;;;;;;;;;4857465;29;20408;-69
2022/08/17 10:20:45;;;;;;;;;;;;;;;;;;4863622;29;19931;-70
2022/08/17 10:26:13;;;;;;;;;;;;;;;;;;4866804;29;19932;-69
2022/08/17 10:28:41;;;;;;;;;;;;;;;;;;4867233;29;21005;-70
2022/08/17 10:31:09;;;;;;;;;;;;;;;;;;4868228;29;20388;-70
2022/08/17 10:33:56;;;;;;;;;;;;;;;;;;4863830;29;20580;-68
2022/08/17 10:36:23;;;;;;;;;;;;;;;;;;4867732;29;20378;-69
2022/08/17 10:38:51;;;;;;;;;;;;;;;;;;4863716;29;20348;-70
2022/08/17 10:41:18;;;;;;;;;;;;;;;;;;4865719;29;19935;-68
2022/08/17 10:43:45;;;;;;;;;;;;;;;;;;4865973;29;20296;-70
2022/08/17 10:46:33;;;;;;;;;;;;;;;;;;4867756;29;19942;-69
2022/08/17 10:49:00;;;;;;;;;;;;;;;;;;4863121;29;19939;-68
2022/08/17 10:51:28;;;;;;;;;;;;;;;;;;4868278;29;19928;-68
2022/08/17 10:53:55;;;;;;;;;;;;;;;;;;4868977;29;19939;-70
2022/08/17 10:56:23;;;;;;;;;;;;;;;;;;4869707;29;19936;-70
2022/08/17 10:58:53;;;;;;;;;;;;;;;;;;4882599;29;19931;-69
2022/08/17 11:01:20;;;;;;;;;;;;;;;;;;4869592;29;19975;-69
2022/08/17 11:03:52;;;;;;;;;;;;;;;;;;4869646;29;19928;-69
2022/08/17 11:06:20;;;;;;;;;;;;;;;;;;4860762;29;19977;-70
2022/08/17 11:08:47;;;;;;;;;;;;;;;;;;4862515;29;20389;-71
2022/08/17 11:11:15;;;;;;;;;;;;;;;;;;4861441;29;19927;-70
2022/08/17 11:13:43;;;;;;;;;;;;;;;;;;4871096;29;19940;-69
2022/08/17 11:16:11;;;;;;;;;;;;;;;;;;4869949;29;19982;-70
2022/08/17 11:18:39;;;;;;;;;;;;;;;;;;4870388;29;19959;-69
2022/08/17 11:21:06;;;;;;;;;;;;;;;;;;4869960;29;20198;-71
2022/08/17 11:23:33;;;;;;;;;;;;;;;;;;4879818;29;19932;-70
2022/08/17 11:26:02;;;;;;;;;;;;;;;;;;4875115;29;19931;-70
2022/08/17 11:28:34;;;;;;;;;;;;;;;;;;4871178;29;20423;-71
2022/08/17 11:31:02;;;;;;;;;;;;;;;;;;4868356;29;20111;-70
2022/08/17 11:33:29;;;;;;;;;;;;;;;;;;4872145;29;19987;-71
2022/08/17 11:35:56;;;;;;;;;;;;;;;;;;4864618;29;19931;-70
2022/08/17 11:38:25;;;;;;;;;;;;;;;;;;4869621;29;20308;-69
2022/08/17 11:40:52;;;;;;;;;;;;;;;;;;4867434;29;20204;-71
2022/08/17 11:43:22;;;;;;;;;;;;;;;;;;4885365;29;19928;-70
2022/08/17 11:45:51;;;;;;;;;;;;;;;;;;4868383;29;19970;-70
2022/08/17 11:53:51;;;;;;;;;;;;;;;;;;4870061;29;19971;-69
2022/08/17 11:56:30;;;;;;;;;;;;;;;;;;4873081;29;19954;-70
2022/08/17 11:58:59;;;;;;;;;;;;;;;;;;4870697;29;19954;-71
2022/08/17 12:01:28;;;;;;;;;;;;;;;;;;4871421;29;19928;-71
2022/08/17 12:04:02;;;;;;;;;;;;;;;;;;4870146;29;19938;-70
2022/08/17 12:06:29;;;;;;;;;;;;;;;;;;4886909;29;19932;-69
2022/08/17 12:08:57;;;;;;;;;;;;;;;;;;4873120;29;19932;-70
2022/08/17 12:11:24;;;;;;;;;;;;;;;;;;4871742;29;19971;-70
2022/08/17 12:14:11;;;;;;;;;;;;;;;;;;4873366;29;19934;-69
2022/08/17 12:16:44;;;;;;;;;;;;;;;;;;4872689;29;20013;-70
2022/08/17 12:19:11;;;;;;;;;;;;;;;;;;4872864;29;19953;-71
2022/08/17 12:21:39;;;;;;;;;;;;;;;;;;4871856;29;20027;-70
2022/08/17 12:24:06;;;;;;;;;;;;;;;;;;4867100;29;19932;-69
2022/08/17 12:26:33;;;;;;;;;;;;;;;;;;4865076;29;19927;-70
2022/08/17 12:29:01;;;;;;;;;;;;;;;;;;4873009;29;20410;-70
2022/08/17 12:31:28;;;;;;;;;;;;;;;;;;4871721;29;19938;-70
2022/08/17 12:33:55;;;;;;;;;;;;;;;;;;4870218;29;19931;-70
2022/08/17 12:36:23;;;;;;;;;;;;;;;;;;4870650;29;19936;-71
2022/08/17 12:38:50;;;;;;;;;;;;;;;;;;4886169;29;20175;-71
2022/08/17 12:41:27;;;;;;;;;;;;;;;;;;4872846;29;19938;-70
2022/08/17 12:43:54;;;;;;;;;;;;;;;;;;4882882;29;19932;-70
2022/08/17 12:46:21;;;;;;;;;;;;;;;;;;4891619;23;20021;-69
2022/08/17 12:48:48;;;;;;;;;;;;;;;;;;4855069;29;20403;-69
2022/08/17 12:51:25;;;;;;;;;;;;;;;;;;4855065;29;20039;-70
2022/08/17 12:53:52;;;;;;;;;;;;;;;;;;4858585;29;19958;-69
2022/08/17 12:56:20;;;;;;;;;;;;;;;;;;4868399;29;20493;-68
2022/08/17 12:58:47;;;;;;;;;;;;;;;;;;4864235;29;20364;-70
2022/08/17 13:01:15;;;;;;;;;;;;;;;;;;4870375;29;19935;-69
2022/08/17 13:03:42;;;;;;;;;;;;;;;;;;4871893;29;19932;-69
2022/08/17 13:06:09;;;;;;;;;;;;;;;;;;4865888;29;19979;-70
2022/08/17 13:08:37;;;;;;;;;;;;;;;;;;4865333;29;19938;-70
2022/08/17 13:11:04;;;;;;;;;;;;;;;;;;4871533;29;19938;-70
2022/08/17 13:13:31;;;;;;;;;;;;;;;;;;4865841;29;20259;-69
2022/08/17 13:15:59;;;;;;;;;;;;;;;;;;4866394;29;20023;-70
2022/08/17 13:18:26;;;;;;;;;;;;;;;;;;4866715;29;20482;-69
2022/08/17 13:20:53;;;;;;;;;;;;;;;;;;4860588;29;19959;-69
2022/08/17 13:23:20;;;;;;;;;;;;;;;;;;4865955;29;19939;-70
2022/08/17 13:25:48;;;;;;;;;;;;;;;;;;4859192;29;19945;-70
2022/08/17 13:28:15;;;;;;;;;;;;;;;;;;4868033;29;20011;-70
2022/08/17 13:30:42;;;;;;;;;;;;;;;;;;4870275;29;20170;-70
2022/08/17 13:33:09;;;;;;;;;;;;;;;;;;4856566;29;19959;-70
2022/08/17 13:35:37;;;;;;;;;;;;;;;;;;4853433;29;19934;-70
2022/08/17 13:38:05;;;;;;;;;;;;;;;;;;4853100;29;20027;-70
2022/08/17 13:40:33;;;;;;;;;;;;;;;;;;4867545;29;19932;-70
2022/08/17 13:43:02;;;;;;;;;;;;;;;;;;4865569;29;20143;-70
2022/08/17 13:45:36;;;;;;;;;;;;;;;;;;4863029;29;20054;-70
2022/08/17 13:48:05;;;;;;;;;;;;;;;;;;4865915;29;19963;-70
2022/08/17 13:50:32;;;;;;;;;;;;;;;;;;4895078;29;19938;-70
2022/08/17 13:52:59;;;;;;;;;;;;;;;;;;4867695;29;19984;-69
2022/08/17 13:55:27;;;;;;;;;;;;;;;;;;4858506;29;20354;-70
2022/08/17 13:57:54;;;;;;;;;;;;;;;;;;4867084;29;20632;-70
2022/08/17 14:00:32;;;;;;;;;;;;;;;;;;4864000;29;20253;-70
2022/08/17 14:03:00;;;;;;;;;;;;;;;;;;4848100;29;19928;-70
2022/08/17 14:05:27;;;;;;;;;;;;;;;;;;4864805;29;19928;-70
2022/08/17 14:07:55;;;;;;;;;;;;;;;;;;4863556;29;19931;-70
2022/08/17 14:10:22;;;;;;;;;;;;;;;;;;4868408;29;20038;-70
2022/08/17 14:12:49;;;;;;;;;;;;;;;;;;4864465;29;19942;-70
2022/08/17 14:15:16;;;;;;;;;;;;;;;;;;4864460;29;19935;-70
2022/08/17 14:17:44;;;;;;;;;;;;;;;;;;4870427;29;19931;-70
2022/08/17 14:20:11;;;;;;;;;;;;;;;;;;4863341;29;20404;-70
2022/08/17 14:22:38;;;;;;;;;;;;;;;;;;4867051;29;21785;-71
2022/08/17 14:25:06;;;;;;;;;;;;;;;;;;4865791;29;20308;-71
2022/08/17 14:27:36;;;;;;;;;;;;;;;;;;4870480;29;19928;-71
2022/08/17 14:30:21;;;;;;;;;;;;;;;;;;4870744;29;19936;-71
2022/08/17 14:32:50;;;;;;;;;;;;;;;;;;4871168;29;19938;-70
2022/08/17 14:35:17;;;;;;;;;;;;;;;;;;4870926;29;19934;-70
2022/08/17 14:37:46;;;;;;;;;;;;;;;;;;4868151;29;19947;-70
2022/08/17 14:40:14;;;;;;;;;;;;;;;;;;4867016;29;19931;-71
2022/08/17 14:42:41;;;;;;;;;;;;;;;;;;4868774;29;20316;-71
2022/08/17 14:45:09;;;;;;;;;;;;;;;;;;4871138;29;19959;-70
2022/08/17 14:47:56;;;;;;;;;;;;;;;;;;4874335;29;19939;-70
2022/08/17 14:50:23;;;;;;;;;;;;;;;;;;4875818;29;19931;-70
2022/08/17 14:52:51;;;;;;;;;;;;;;;;;;4874191;29;19935;-70
2022/08/17 14:55:19;;;;;;;;;;;;;;;;;;4875260;29;19970;-71
2022/08/17 14:57:47;;;;;;;;;;;;;;;;;;4874522;29;19927;-70
2022/08/17 15:00:15;;;;;;;;;;;;;;;;;;4874540;29;19939;-71
2022/08/17 15:02:42;;;;;;;;;;;;;;;;;;4866116;29;20345;-71
2022/08/17 15:05:10;;;;;;;;;;;;;;;;;;4868252;29;19932;-71
2022/08/17 15:07:37;;;;;;;;;;;;;;;;;;4872692;29;20012;-70
2022/08/17 15:10:05;;;;;;;;;;;;;;;;;;4873220;29;20305;-71
2022/08/17 15:12:32;;;;;;;;;;;;;;;;;;4873340;29;20100;-70
2022/08/17 15:15:00;;;;;;;;;;;;;;;;;;4874626;29;19967;-71
2022/08/17 15:17:28;;;;;;;;;;;;;;;;;;4872880;29;19938;-71
2022/08/17 15:20:12;;;;;;;;;;;;;;;;;;4857165;29;19932;-70
2022/08/17 15:22:41;;;;;;;;;;;;;;;;;;4864954;29;19931;-72
2022/08/17 15:25:08;;;;;;;;;;;;;;;;;;4867920;29;19932;-70
2022/08/17 15:27:35;;;;;;;;;;;;;;;;;;4863451;29;19932;-70
2022/08/17 15:30:03;;;;;;;;;;;;;;;;;;4854516;29;20026;-70
2022/08/17 15:32:30;;;;;;;;;;;;;;;;;;4862735;29;20027;-69
2022/08/17 15:34:59;;;;;;;;;;;;;;;;;;4872087;29;20445;-70
2022/08/17 15:37:26;;;;;;;;;;;;;;;;;;4868471;29;19986;-69
2022/08/17 15:39:53;;;;;;;;;;;;;;;;;;4863158;29;19935;-69
2022/08/17 15:42:21;;;;;;;;;;;;;;;;;;4869690;29;19947;-69
2022/08/17 15:44:48;;;;;;;;;;;;;;;;;;4871518;29;20247;-69
2022/08/17 15:47:16;;;;;;;;;;;;;;;;;;4874038;29;20014;-70
2022/08/17 15:49:44;;;;;;;;;;;;;;;;;;4873714;29;19940;-69
2022/08/17 15:52:11;;;;;;;;;;;;;;;;;;4865034;29;19951;-69
2022/08/17 15:54:38;;;;;;;;;;;;;;;;;;4872045;29;19931;-70
2022/08/17 15:57:06;;;;;;;;;;;;;;;;;;4854514;29;19932;-70
2022/08/17 15:59:33;;;;;;;;;;;;;;;;;;4855628;29;19935;-69
2022/08/17 16:02:00;;;;;;;;;;;;;;;;;;4856237;29;19938;-70
2022/08/17 16:04:47;;;;;;;;;;;;;;;;;;4860388;29;20228;-70
2022/08/17 16:07:16;;;;;;;;;;;;;;;;;;4870285;29;20281;-70
2022/08/17 16:09:43;;;;;;;;;;;;;;;;;;4871692;29;19928;-70
2022/08/17 16:12:11;;;;;;;;;;;;;;;;;;4871907;29;19932;-70
2022/08/17 16:14:38;;;;;;;;;;;;;;;;;;4870821;29;19971;-69
2022/08/17 16:17:08;;;;;;;;;;;;;;;;;;4853419;29;19932;-69
2022/08/17 16:19:56;;;;;;;;;;;;;;;;;;4864767;29;20015;-70
2022/08/17 16:22:24;;;;;;;;;;;;;;;;;;4872416;29;20468;-69
2022/08/17 16:24:56;;;;;;;;;;;;;;;;;;4872672;29;19932;-70
2022/08/17 16:27:24;;;;;;;;;;;;;;;;;;4872392;29;20324;-69
2022/08/17 16:29:51;;;;;;;;;;;;;;;;;;4871679;29;20030;-69
2022/08/17 16:32:22;;;;;;;;;;;;;;;;;;4867865;29;19935;-70
2022/08/17 16:35:00;;;;;;;;;;;;;;;;;;4866176;29;19934;-70
2022/08/17 16:37:28;;;;;;;;;;;;;;;;;;4870506;29;20022;-69
2022/08/17 16:39:55;;;;;;;;;;;;;;;;;;4869351;29;20372;-69
2022/08/17 16:42:23;;;;;;;;;;;;;;;;;;4870811;29;19943;-69
2022/08/17 16:44:50;;;;;;;;;;;;;;;;;;4862714;29;19979;-69
2022/08/17 16:47:18;;;;;;;;;;;;;;;;;;4857929;29;19932;-69
2022/08/17 16:49:45;;;;;;;;;;;;;;;;;;4868478;29;19938;-69
2022/08/17 16:52:13;;;;;;;;;;;;;;;;;;4869873;29;19934;-69
2022/08/17 16:54:42;;;;;;;;;;;;;;;;;;4867529;29;20576;-70
2022/08/17 16:57:09;;;;;;;;;;;;;;;;;;4853155;29;20401;-69
2022/08/17 16:59:37;;;;;;;;;;;;;;;;;;4857086;29;20440;-69
2022/08/17 17:02:09;;;;;;;;;;;;;;;;;;4870184;29;20388;-69
2022/08/17 17:04:39;;;;;;;;;;;;;;;;;;4870383;29;20026;-70
2022/08/17 17:07:06;;;;;;;;;;;;;;;;;;4870699;29;19928;-70
2022/08/17 17:09:33;;;;;;;;;;;;;;;;;;4870378;29;19931;-68
2022/08/17 17:12:01;;;;;;;;;;;;;;;;;;4871024;29;20396;-68
2022/08/17 17:14:28;;;;;;;;;;;;;;;;;;4871931;29;20307;-68
2022/08/17 17:16:56;;;;;;;;;;;;;;;;;;4862775;29;19963;-68
2022/08/17 17:19:25;;;;;;;;;;;;;;;;;;4864675;29;19999;-69